Time;durP1;ratioP1;P1;durP2;ratioP2;P2;SDS_P1;SDS_P2;PMS_P1;PMS_P2;Temp;Humidity;BMP_temperature;BMP_pressure;BME280_temperature;BME280_humidity;BME280_pressure;Samples;Min_cycle;Max_cycle;Signal;HPM_P1;HPM_P2
2023/01/05 00:01:39;;;;;;;14.05;2.22;;;;;;;10.29;100.00;101126.31;5017651;28;20462;-52
2023/01/05 00:04:05;;;;;;;18.95;4.72;;;;;;;10.12;100.00;101138.78;5010692;28;20033;-55
2023/01/05 00:06:30;;;;;;;18.80;3.22;;;;;;;10.04;100.00;101142.28;5017503;28;20065;-53
2023/01/05 00:08:57;;;;;;;18.00;3.78;;;;;;;10.09;100.00;101155.03;5019616;28;20084;-52
2023/01/05 00:22:33;;;;;;;19.30;3.17;;;;;;;10.17;100.00;101139.09;5015693;28;20095;-54
2023/01/05 00:25:11;;;;;;;14.15;2.15;;;;;;;10.21;100.00;101135.91;5016167;28;20030;-50
2023/01/05 00:27:37;;;;;;;20.92;4.00;;;;;;;10.18;100.00;101140.75;5020223;28;20037;-53
2023/01/05 00:30:04;;;;;;;18.50;2.25;;;;;;;10.23;100.00;101147.19;5016809;28;20045;-53
2023/01/05 00:32:29;;;;;;;20.73;2.45;;;;;;;10.11;100.00;101145.91;5023375;28;20482;-50
2023/01/05 00:34:56;;;;;;;27.55;5.55;;;;;;;10.11;100.00;101159.16;5020458;28;20116;-50
2023/01/05 00:37:24;;;;;;;18.90;4.38;;;;;;;10.14;100.00;101164.09;5024647;28;20033;-51
2023/01/05 00:39:50;;;;;;;19.83;4.80;;;;;;;10.16;100.00;101171.91;5014255;28;20037;-52
2023/01/05 00:42:15;;;;;;;19.27;4.80;;;;;;;10.28;100.00;101167.91;5024670;28;20029;-52
2023/01/05 00:44:41;;;;;;;16.52;3.75;;;;;;;10.30;100.00;101175.66;5018467;28;20505;-54
2023/01/05 00:47:06;;;;;;;20.52;3.55;;;;;;;10.29;100.00;101174.03;5020082;28;20041;-53
2023/01/05 00:49:32;;;;;;;14.82;2.50;;;;;;;10.16;100.00;101180.66;5017915;28;20568;-49
2023/01/05 00:51:57;;;;;;;27.13;6.45;;;;;;;10.14;100.00;101184.47;5016997;28;20133;-54
2023/01/05 00:54:22;;;;;;;18.48;3.45;;;;;;;10.07;100.00;101164.97;5023604;28;20167;-52
2023/01/05 00:56:48;;;;;;;24.33;2.72;;;;;;;10.06;100.00;101172.09;5021683;28;20030;-51
2023/01/05 00:59:14;;;;;;;19.65;4.63;;;;;;;10.05;100.00;101175.75;5018276;28;20395;-51
2023/01/05 01:01:40;;;;;;;11.05;3.13;;;;;;;10.07;100.00;101167.59;5019511;28;20041;-53
2023/01/05 01:04:05;;;;;;;11.95;3.83;;;;;;;10.07;100.00;101160.50;5013853;28;20020;-49
2023/01/05 01:06:31;;;;;;;24.40;4.65;;;;;;;10.03;100.00;101162.66;5015462;28;20107;-53
2023/01/05 01:08:57;;;;;;;22.90;4.00;;;;;;;10.00;100.00;101167.47;5020886;28;20030;-51
2023/01/05 01:11:22;;;;;;;21.20;4.93;;;;;;;9.95;100.00;101160.03;5019243;28;20091;-50
2023/01/05 01:13:48;;;;;;;17.92;4.90;;;;;;;9.95;100.00;101165.34;5015463;28;20111;-51
2023/01/05 01:16:15;;;;;;;18.02;3.65;;;;;;;9.91;100.00;101166.66;5018824;28;20036;-56
2023/01/05 01:18:41;;;;;;;23.38;4.82;;;;;;;9.70;100.00;101158.44;5012847;28;20462;-54
2023/01/05 01:21:07;;;;;;;22.75;6.72;;;;;;;9.81;100.00;101166.88;5024392;28;20025;-53
2023/01/05 01:23:36;;;;;;;18.38;2.97;;;;;;;9.72;100.00;101170.50;5012416;28;20076;-53
2023/01/05 01:26:06;;;;;;;23.10;5.47;;;;;;;9.60;100.00;101171.84;5015639;28;20471;-55
2023/01/05 01:28:31;;;;;;;18.40;5.63;;;;;;;9.62;100.00;101185.75;5017040;28;20044;-51
2023/01/05 01:30:57;;;;;;;20.00;4.40;;;;;;;9.70;100.00;101177.78;5018887;28;20429;-52
2023/01/05 01:33:22;;;;;;;23.90;3.45;;;;;;;9.86;100.00;101181.41;5016588;28;20495;-52
2023/01/05 01:35:47;;;;;;;9.27;2.67;;;;;;;9.90;100.00;101193.34;5017714;28;20055;-51
2023/01/05 01:38:13;;;;;;;25.38;5.97;;;;;;;9.89;100.00;101189.03;5020163;28;20120;-52
2023/01/05 01:40:40;;;;;;;23.33;5.07;;;;;;;9.95;100.00;101201.59;5018537;28;20057;-52
2023/01/05 01:43:15;;;;;;;35.63;5.15;;;;;;;10.22;100.00;101206.50;5015702;28;20036;-52
2023/01/05 01:45:41;;;;;;;25.45;4.80;;;;;;;10.09;100.00;101215.97;5017619;28;20104;-52
2023/01/05 01:48:09;;;;;;;21.27;5.25;;;;;;;9.92;100.00;101213.38;5021440;28;20100;-53
2023/01/05 01:50:43;;;;;;;33.40;4.40;;;;;;;9.79;100.00;101203.28;5016262;28;20492;-55
2023/01/05 01:53:16;;;;;;;25.60;4.68;;;;;;;9.82;100.00;101210.06;5019302;28;20038;-52
2023/01/05 01:55:43;;;;;;;16.30;5.03;;;;;;;9.87;100.00;101206.91;5022940;28;20030;-50
2023/01/05 01:58:13;;;;;;;22.70;3.72;;;;;;;9.81;100.00;101217.19;5016547;28;20434;-52
2023/01/05 02:00:40;;;;;;;29.77;5.13;;;;;;;9.85;100.00;101206.25;5020810;28;20064;-53
2023/01/05 02:03:05;;;;;;;14.82;2.53;;;;;;;9.88;100.00;101209.38;5020240;28;20069;-50
2023/01/05 02:05:32;;;;;;;16.40;3.75;;;;;;;9.94;100.00;101215.81;5026478;28;20548;-53
2023/01/05 02:07:58;;;;;;;18.38;3.80;;;;;;;9.90;100.00;101211.88;5018749;28;20022;-54
2023/01/05 02:10:49;;;;;;;21.58;4.93;;;;;;;10.02;100.00;101207.88;5022341;28;20040;-52
2023/01/05 02:13:20;;;;;;;20.15;4.10;;;;;;;10.05;100.00;101218.97;5017055;28;20038;-51
2023/01/05 02:16:05;;;;;;;16.10;3.53;;;;;;;10.07;100.00;101216.16;5023529;28;20033;-50
2023/01/05 02:18:30;;;;;;;18.85;4.32;;;;;;;10.12;100.00;101211.16;5019180;28;20041;-52
2023/01/05 02:21:03;;;;;;;16.00;4.18;;;;;;;10.29;100.00;101219.09;5022034;28;20033;-50
2023/01/05 02:23:31;;;;;;;22.80;7.75;;;;;;;10.32;100.00;101218.75;5017150;28;20446;-53
2023/01/05 02:26:02;;;;;;;21.95;4.88;;;;;;;10.34;100.00;101228.19;5016369;28;20102;-52
2023/01/05 02:28:42;;;;;;;22.27;4.65;;;;;;;10.31;100.00;101227.69;5015290;28;20038;-54
2023/01/05 02:31:12;;;;;;;25.40;4.07;;;;;;;10.22;100.00;101230.34;5022295;28;20112;-53
2023/01/05 02:33:54;;;;;;;16.58;2.72;;;;;;;10.37;100.00;101238.44;5015751;28;20014;-53
2023/01/05 02:36:26;;;;;;;23.67;5.78;;;;;;;10.32;100.00;101250.53;5022756;28;20087;-53
2023/01/05 02:39:10;;;;;;;20.23;4.13;;;;;;;10.30;100.00;101241.94;5013963;28;20387;-52
2023/01/05 02:41:39;;;;;;;19.75;3.53;;;;;;;10.33;100.00;101242.44;5017044;28;20026;-50
2023/01/05 02:44:07;;;;;;;19.85;2.85;;;;;;;10.28;100.00;101238.66;5021195;28;20022;-56
2023/01/05 02:46:33;;;;;;;14.38;5.13;;;;;;;10.23;100.00;101245.25;5018680;28;20483;-53
2023/01/05 02:49:00;;;;;;;18.05;4.72;;;;;;;10.20;100.00;101237.63;5015058;28;20041;-52
2023/01/05 02:51:32;;;;;;;32.28;3.08;;;;;;;10.15;100.00;101237.31;5021913;28;20112;-50
2023/01/05 02:54:10;;;;;;;13.85;2.72;;;;;;;10.15;100.00;101242.63;5019596;28;20084;-52
2023/01/05 02:56:43;;;;;;;19.95;3.75;;;;;;;10.15;100.00;101239.97;5023179;28;20041;-54
2023/01/05 02:59:24;;;;;;;18.60;2.88;;;;;;;10.08;100.00;101232.88;5022519;28;20375;-53
2023/01/05 03:02:02;;;;;;;14.82;5.55;;;;;;;10.13;100.00;101231.34;5019394;28;20033;-52
2023/01/05 03:04:34;;;;;;;11.10;3.17;;;;;;;10.13;100.00;101233.19;5021167;28;20072;-51
2023/01/05 03:07:08;;;;;;;19.08;2.67;;;;;;;10.04;100.00;101237.66;5017080;28;20368;-51
2023/01/05 03:09:37;;;;;;;17.27;3.13;;;;;;;10.08;100.00;101236.34;5020225;28;20025;-54
2023/01/05 03:14:58;;;;;;;16.95;3.05;;;;;;;10.21;100.00;101239.28;5032625;28;20036;-49
2023/01/05 03:17:31;;;;;;;;;;;;;;;10.36;100.00;101241.28;5025354;28;20033;-54
2023/01/05 03:19:57;;;;;;;13.43;2.55;;;;;;;10.46;100.00;101236.59;5030404;28;19917;-49
2023/01/05 03:37:08;;;;;;;11.75;2.20;;;;;;;9.84;100.00;101237.22;5024052;28;20076;-52
2023/01/05 03:39:36;;;;;;;22.73;3.20;;;;;;;9.76;100.00;101231.94;5034645;28;20124;-54
2023/01/05 03:42:02;;;;;;;18.55;4.13;;;;;;;9.70;100.00;101236.06;5028890;28;20030;-52
2023/01/05 03:44:28;;;;;;;28.75;6.03;;;;;;;9.72;100.00;101243.84;5020159;28;20046;-54
2023/01/05 03:46:53;;;;;;;26.33;6.03;;;;;;;9.73;100.00;101246.34;5026599;28;20335;-50
2023/01/05 03:49:19;;;;;;;18.80;3.97;;;;;;;9.78;100.00;101249.31;5031470;28;20036;-55
2023/01/05 03:51:44;;;;;;;21.58;3.53;;;;;;;9.84;100.00;101247.81;5024728;28;20410;-54
2023/01/05 03:54:09;;;;;;;14.52;2.97;;;;;;;9.90;100.00;101248.97;5032979;28;20446;-53
2023/01/05 03:56:35;;;;;;;27.23;2.67;;;;;;;9.90;100.00;101256.91;5032689;28;20124;-50
2023/01/05 03:59:00;;;;;;;34.65;6.68;;;;;;;9.72;100.00;101249.13;5030911;28;20033;-50
2023/01/05 04:01:26;;;;;;;19.67;3.28;;;;;;;9.73;100.00;101248.13;5025798;28;20035;-52
2023/01/05 04:03:51;;;;;;;18.05;4.53;;;;;;;9.76;100.00;101246.00;5030072;28;20025;-51
2023/01/05 04:06:16;;;;;;;18.23;3.83;;;;;;;9.94;100.00;101248.47;5030206;28;20360;-52
2023/01/05 04:08:42;;;;;;;19.60;5.55;;;;;;;9.98;100.00;101241.00;5030807;28;20587;-51
2023/01/05 04:11:17;;;;;;;20.30;5.65;;;;;;;9.94;100.00;101237.88;5032505;28;20029;-51
2023/01/05 04:13:43;;;;;;;23.98;6.38;;;;;;;9.96;100.00;101249.09;5023907;28;20088;-50
2023/01/05 04:16:09;;;;;;;21.58;5.63;;;;;;;9.90;100.00;101244.47;5021414;28;20060;-51
2023/01/05 04:18:35;;;;;;;19.75;3.60;;;;;;;9.94;100.00;101248.47;5032331;28;20025;-52
2023/01/05 04:21:01;;;;;;;21.08;4.97;;;;;;;10.11;100.00;101243.94;5034149;28;20017;-55
2023/01/05 04:23:26;;;;;;;18.85;3.40;;;;;;;9.95;100.00;101252.75;5027258;28;20044;-54
2023/01/05 04:25:52;;;;;;;22.83;3.97;;;;;;;9.90;100.00;101252.44;5032177;28;20438;-54
2023/01/05 04:28:17;;;;;;;21.05;5.32;;;;;;;9.86;100.00;101250.28;5030051;28;20109;-49
2023/01/05 04:30:43;;;;;;;17.05;4.63;;;;;;;9.83;100.00;101257.59;5020724;28;20072;-50
2023/01/05 04:33:09;;;;;;;18.40;3.65;;;;;;;9.82;100.00;101253.25;5022802;28;20472;-51
2023/01/05 04:35:34;;;;;;;24.60;2.97;;;;;;;9.78;100.00;101254.63;5024235;28;20039;-52
2023/01/05 04:37:59;;;;;;;21.80;5.38;;;;;;;9.83;100.00;101254.94;5030252;28;20109;-52
2023/01/05 04:40:25;;;;;;;24.92;5.55;;;;;;;9.79;100.00;101256.25;5030780;28;20028;-56
2023/01/05 04:42:50;;;;;;;13.48;3.55;;;;;;;9.78;100.00;101259.91;5032253;28;20026;-49
2023/01/05 04:45:16;;;;;;;21.05;5.93;;;;;;;9.70;100.00;101259.88;5031314;28;20118;-55
2023/01/05 04:47:41;;;;;;;38.38;5.53;;;;;;;9.71;100.00;101264.22;5031152;28;20025;-50
2023/01/05 04:50:07;;;;;;;20.58;4.18;;;;;;;9.61;100.00;101271.50;5030925;28;20519;-51
2023/01/05 04:52:33;;;;;;;18.20;5.60;;;;;;;9.56;100.00;101281.75;5027911;28;20057;-51
2023/01/05 04:54:58;;;;;;;22.25;4.50;;;;;;;9.46;100.00;101289.00;5029864;28;20018;-54
2023/01/05 04:57:23;;;;;;;20.70;3.67;;;;;;;9.39;100.00;101287.00;5033307;28;20116;-50
2023/01/05 04:59:49;;;;;;;11.65;4.25;;;;;;;9.38;100.00;101290.66;5023182;28;20057;-52
2023/01/05 05:02:14;;;;;;;16.23;5.20;;;;;;;9.29;100.00;101296.09;5022040;28;20474;-51
2023/01/05 05:04:40;;;;;;;25.95;2.83;;;;;;;9.25;100.00;101287.66;5022286;28;20022;-50
2023/01/05 05:07:05;;;;;;;13.57;2.33;;;;;;;9.21;100.00;101290.78;5029551;28;20018;-50
2023/01/05 05:09:31;;;;;;;14.45;2.75;;;;;;;9.14;100.00;101296.75;5031628;28;20071;-54
2023/01/05 05:11:56;;;;;;;17.88;3.35;;;;;;;9.30;100.00;101303.06;5036783;28;20024;-52
2023/01/05 05:14:21;;;;;;;11.38;2.63;;;;;;;9.25;100.00;101292.94;5029610;28;20374;-54
2023/01/05 05:16:47;;;;;;;14.05;2.33;;;;;;;9.22;100.00;101293.28;5029686;28;20522;-52
2023/01/05 05:19:12;;;;;;;13.80;2.97;;;;;;;9.23;100.00;101300.22;5022937;28;20041;-51
2023/01/05 05:21:38;;;;;;;16.50;2.00;;;;;;;9.18;100.00;101299.88;5035079;28;20044;-51
2023/01/05 05:24:03;;;;;;;15.27;3.38;;;;;;;9.29;100.00;101296.09;5030121;28;20025;-49
2023/01/05 05:26:29;;;;;;;21.38;3.13;;;;;;;9.27;100.00;101293.63;5032682;28;20129;-51
2023/01/05 05:28:56;;;;;;;13.52;4.75;;;;;;;9.33;100.00;101300.09;5024711;28;20037;-51
2023/01/05 05:31:22;;;;;;;18.65;3.15;;;;;;;9.38;100.00;101300.41;5034945;28;20029;-51
2023/01/05 05:33:47;;;;;;;25.48;3.08;;;;;;;9.36;100.00;101300.56;5036388;28;20112;-49
2023/01/05 05:36:13;;;;;;;23.27;5.07;;;;;;;9.30;100.00;101303.88;5041169;28;20111;-53
2023/01/05 05:38:38;;;;;;;17.50;4.28;;;;;;;9.33;100.00;101302.72;5036301;28;20049;-52
2023/01/05 05:41:04;;;;;;;13.73;3.75;;;;;;;9.37;100.00;101301.41;5031506;28;20464;-52
2023/01/05 05:43:29;;;;;;;12.10;2.30;;;;;;;9.39;100.00;101312.66;5037041;28;20021;-52
2023/01/05 05:45:54;;;;;;;17.75;2.10;;;;;;;9.32;100.00;101307.19;5035094;28;20017;-53
2023/01/05 05:48:20;;;;;;;11.00;2.75;;;;;;;9.43;100.00;101307.88;5025050;28;20029;-49
2023/01/05 05:50:46;;;;;;;13.95;3.45;;;;;;;9.43;100.00;101308.69;5032709;28;20112;-51
2023/01/05 05:53:11;;;;;;;17.10;4.15;;;;;;;9.52;100.00;101299.75;5038792;28;20390;-51
2023/01/05 05:55:37;;;;;;;22.15;4.35;;;;;;;9.52;100.00;101310.34;5036222;28;20065;-50
2023/01/05 05:58:02;;;;;;;13.25;3.00;;;;;;;9.57;100.00;101307.22;5028002;28;20117;-50
2023/01/05 06:00:28;;;;;;;19.23;3.70;;;;;;;9.46;100.00;101318.13;5027696;28;20080;-51
2023/01/05 06:02:54;;;;;;;15.93;3.28;;;;;;;9.45;100.00;101316.47;5032076;28;20025;-49
2023/01/05 06:05:19;;;;;;;17.80;4.22;;;;;;;9.55;100.00;101314.50;5031185;28;20033;-54
2023/01/05 06:07:45;;;;;;;10.20;2.40;;;;;;;9.58;100.00;101314.19;5024873;28;20466;-54
2023/01/05 06:10:10;;;;;;;12.68;1.77;;;;;;;9.53;100.00;101308.56;5030959;28;20033;-52
2023/01/05 06:12:35;;;;;;;13.05;2.80;;;;;;;9.50;100.00;101320.31;5033492;28;20120;-53
2023/01/05 06:15:01;;;;;;;20.42;4.10;;;;;;;9.48;100.00;101311.69;5035209;28;20188;-52
2023/01/05 06:17:27;;;;;;;15.10;1.80;;;;;;;9.55;100.00;101303.91;5028948;28;20033;-52
2023/01/05 06:19:52;;;;;;;15.48;4.05;;;;;;;9.54;100.00;101300.44;5025963;28;20044;-54
2023/01/05 06:22:17;;;;;;;19.67;3.67;;;;;;;9.63;100.00;101308.38;5022805;28;20030;-51
2023/01/05 06:24:43;;;;;;;13.35;2.55;;;;;;;9.64;100.00;101310.88;5018644;28;20131;-51
2023/01/05 06:27:09;;;;;;;15.57;3.40;;;;;;;9.67;100.00;101307.88;5024907;28;20029;-52
2023/01/05 06:29:35;;;;;;;14.30;3.58;;;;;;;9.68;100.00;101296.31;5023128;28;20029;-54
2023/01/05 06:32:00;;;;;;;12.23;6.05;;;;;;;9.63;100.00;101303.94;5028267;28;20501;-54
2023/01/05 06:34:25;;;;;;;12.07;2.80;;;;;;;9.67;100.00;101302.59;5030998;28;20064;-54
2023/01/05 06:36:51;;;;;;;13.73;3.53;;;;;;;9.72;100.00;101288.88;5029234;28;20049;-52
2023/01/05 06:39:16;;;;;;;16.77;4.63;;;;;;;9.72;100.00;101299.47;5022243;28;20037;-52
2023/01/05 06:41:41;;;;;;;21.30;4.78;;;;;;;9.68;100.00;101296.31;5027971;28;20030;-52
2023/01/05 06:44:08;;;;;;;18.30;5.65;;;;;;;9.63;100.00;101317.16;5026977;28;20040;-50
2023/01/05 06:46:33;;;;;;;13.32;3.60;;;;;;;9.58;100.00;101308.91;5024539;28;20080;-51
2023/01/05 06:48:58;;;;;;;15.95;2.83;;;;;;;9.61;100.00;101319.97;5018340;28;20053;-54
2023/01/05 06:51:24;;;;;;;17.83;2.80;;;;;;;9.74;100.00;101316.84;5023993;28;20037;-53
2023/01/05 06:53:49;;;;;;;10.43;4.22;;;;;;;9.75;100.00;101307.06;5028725;28;20041;-51
2023/01/05 06:56:14;;;;;;;8.80;3.47;;;;;;;9.63;100.00;101313.66;5024674;28;20033;-53
2023/01/05 06:58:40;;;;;;;14.88;3.60;;;;;;;9.60;100.00;101314.81;5026820;28;20055;-51
2023/01/05 07:01:05;;;;;;;13.70;3.00;;;;;;;9.57;100.00;101318.63;5023166;28;20076;-51
2023/01/05 07:03:30;;;;;;;26.95;5.40;;;;;;;9.54;100.00;101323.44;5022699;28;20037;-55
2023/01/05 07:05:56;;;;;;;13.18;2.53;;;;;;;9.53;100.00;101319.16;5026280;28;20132;-55
2023/01/05 07:08:21;;;;;;;17.90;3.25;;;;;;;9.55;100.00;101325.06;5030027;28;20506;-49
2023/01/05 07:10:46;;;;;;;19.95;4.55;;;;;;;9.66;100.00;101311.53;5035044;28;20470;-53
2023/01/05 07:13:12;;;;;;;14.98;1.45;;;;;;;9.65;100.00;101307.22;5031645;28;20072;-52
2023/01/05 07:15:37;;;;;;;19.48;3.97;;;;;;;9.64;100.00;101302.94;5024933;28;20067;-56
2023/01/05 07:18:03;;;;;;;11.73;3.97;;;;;;;9.65;100.00;101307.22;5025647;28;20069;-50
2023/01/05 07:20:28;;;;;;;11.93;3.63;;;;;;;9.69;100.00;101294.50;5018531;28;20084;-54
2023/01/05 07:22:53;;;;;;;20.65;4.13;;;;;;;9.72;100.00;101288.88;5014748;28;20017;-52
2023/01/05 07:25:18;;;;;;;17.85;2.95;;;;;;;9.60;100.00;101298.94;5023009;28;20109;-53
2023/01/05 07:27:51;;;;;;;21.00;3.35;;;;;;;9.59;100.00;101292.00;5019850;28;20036;-53
2023/01/05 07:30:17;;;;;;;17.98;3.13;;;;;;;9.62;100.00;101296.97;5025389;28;20034;-54
2023/01/05 07:32:42;;;;;;;22.55;2.30;;;;;;;9.56;100.00;101289.69;5017847;28;20025;-54
2023/01/05 07:35:08;;;;;;;14.05;2.72;;;;;;;9.57;100.00;101283.38;5022591;28;20025;-52
2023/01/05 07:37:33;;;;;;;20.27;2.92;;;;;;;9.57;100.00;101296.63;5028110;28;20048;-52
2023/01/05 07:39:59;;;;;;;22.60;5.68;;;;;;;9.57;100.00;101299.28;5023399;28;20037;-52
2023/01/05 07:42:24;;;;;;;13.15;2.90;;;;;;;9.57;100.00;101296.63;5028811;28;20029;-53
2023/01/05 07:44:51;;;;;;;14.38;4.55;;;;;;;9.47;100.00;101298.59;5023478;28;20045;-53
2023/01/05 07:47:16;;;;;;;19.42;2.33;;;;;;;9.48;100.00;101301.09;5021373;28;20148;-55
2023/01/05 07:49:42;;;;;;;16.80;3.70;;;;;;;9.50;100.00;101298.28;5028555;28;20104;-50
2023/01/05 07:52:07;;;;;;;13.25;2.45;;;;;;;9.61;100.00;101292.69;5025352;28;20041;-53
2023/01/05 07:54:33;;;;;;;24.85;5.95;;;;;;;9.84;100.00;101279.59;5027945;28;20079;-52
2023/01/05 07:56:58;;;;;;;23.35;5.15;;;;;;;9.58;100.00;101279.78;5022980;28;20025;-53
2023/01/05 07:59:24;;;;;;;25.58;3.75;;;;;;;9.58;100.00;101279.78;5032693;28;20036;-51
2023/01/05 08:01:49;;;;;;;13.18;3.40;;;;;;;9.60;100.00;101296.28;5017848;28;20061;-51
2023/01/05 08:04:14;;;;;;;14.35;2.70;;;;;;;9.39;100.00;101286.19;5016392;28;20025;-55
2023/01/05 08:06:40;;;;;;;15.27;2.00;;;;;;;9.29;100.00;101286.34;5016311;28;20030;-50
2023/01/05 08:11:49;;;;;;;10.43;3.38;;;;;;;9.25;100.00;101290.31;5031657;28;20570;-51
2023/01/05 08:14:14;;;;;;;10.68;2.47;;;;;;;9.27;100.00;101309.50;5017879;28;20029;-54
2023/01/05 08:16:41;;;;;;;18.52;5.18;;;;;;;9.25;100.00;101308.00;5027582;28;20033;-53
2023/01/05 08:19:08;;;;;;;5.35;1.52;;;;;;;9.26;100.00;101313.13;5015755;28;20367;-52
2023/01/05 08:21:33;;;;;;;11.65;1.17;;;;;;;9.27;100.00;101312.16;5010860;28;20029;-54
2023/01/05 08:23:59;;;;;;;12.63;2.17;;;;;;;9.45;100.00;101311.16;5017523;28;20025;-52
2023/01/05 08:26:24;;;;;;;22.05;3.25;;;;;;;9.59;100.00;101306.06;5019385;28;20052;-50
2023/01/05 08:28:50;;;;;;;21.05;3.97;;;;;;;9.77;100.00;101305.91;5016686;28;20072;-53
2023/01/05 08:31:21;;;;;;;12.18;1.77;;;;;;;9.86;100.00;101304.09;5013172;28;20084;-52
2023/01/05 08:33:47;;;;;;;9.52;1.27;;;;;;;9.84;100.00;101308.72;5019931;28;20030;-54
2023/01/05 08:36:19;;;;;;;15.32;1.83;;;;;;;9.69;100.00;101319.16;5034496;28;20056;-54
2023/01/05 08:38:50;;;;;;;12.00;2.75;;;;;;;9.57;100.00;101318.63;5018983;28;20034;-52
2023/01/05 08:41:26;;;;;;;19.05;3.55;;;;;;;9.59;100.00;101329.91;5024170;28;20036;-53
2023/01/05 08:43:55;;;;;;;10.60;1.70;;;;;;;9.77;100.00;101324.44;5020256;28;20069;-50
2023/01/05 08:46:22;;;;;;;17.75;2.65;;;;;;;9.74;100.00;101323.97;5017994;28;20116;-53
2023/01/05 08:48:55;;;;;;;9.70;2.65;;;;;;;9.73;100.00;101320.50;5022136;28;20461;-50
2023/01/05 08:51:21;;;;;;;8.00;2.90;;;;;;;9.81;100.00;101314.38;5020095;28;20060;-52
2023/01/05 08:53:46;;;;;;;6.28;1.90;;;;;;;9.90;100.00;101304.59;5018045;28;20383;-50
2023/01/05 08:56:12;;;;;;;15.15;2.42;;;;;;;9.94;100.00;101301.44;5029346;28;20391;-53
2023/01/05 08:58:39;;;;;;;13.90;3.13;;;;;;;9.89;100.00;101300.28;5015032;28;20029;-53
2023/01/05 09:01:09;;;;;;;19.10;2.92;;;;;;;9.98;100.00;101301.94;5019426;28;20029;-53
2023/01/05 09:03:36;;;;;;;12.63;2.10;;;;;;;10.01;100.00;101297.13;5021040;28;20033;-52
2023/01/05 09:06:03;;;;;;;18.33;3.05;;;;;;;10.03;100.00;101294.31;5029963;28;20044;-52
2023/01/05 09:08:29;;;;;;;11.68;2.20;;;;;;;10.04;100.00;101295.94;5019374;28;20504;-50
2023/01/05 09:10:54;;;;;;;8.93;1.63;;;;;;;10.02;100.00;101290.00;5013886;28;20030;-50
2023/01/05 09:13:20;;;;;;;20.83;3.67;;;;;;;9.93;100.00;101289.19;5017077;28;20052;-53
2023/01/05 09:15:45;;;;;;;18.80;3.88;;;;;;;9.90;100.00;101288.69;5021104;28;20029;-50
2023/01/05 09:18:10;;;;;;;12.32;2.50;;;;;;;9.92;100.00;101292.84;5018252;28;20037;-52
2023/01/05 09:20:36;;;;;;;12.05;2.28;;;;;;;9.96;100.00;101294.13;5010293;28;20486;-54
2023/01/05 09:23:01;;;;;;;14.73;2.90;;;;;;;10.01;100.00;101305.06;5017206;28;20395;-53
2023/01/05 09:25:26;;;;;;;12.20;2.05;;;;;;;10.07;100.00;101300.94;5023502;28;20399;-50
2023/01/05 09:27:52;;;;;;;13.48;3.22;;;;;;;10.15;100.00;101292.16;5024130;28;20057;-52
2023/01/05 09:30:17;;;;;;;10.55;1.70;;;;;;;10.19;100.00;101298.75;5025946;28;20124;-54
2023/01/05 09:32:42;;;;;;;11.77;1.52;;;;;;;10.16;100.00;101305.22;5015316;28;20109;-52
2023/01/05 09:35:08;;;;;;;5.85;1.00;;;;;;;10.16;100.00;101304.41;5022400;28;20033;-52
2023/01/05 09:37:33;;;;;;;13.30;2.72;;;;;;;10.30;100.00;101295.78;5031888;28;20041;-54
2023/01/05 09:39:58;;;;;;;7.63;2.10;;;;;;;10.29;100.00;101299.44;5032292;28;20079;-52
2023/01/05 09:42:29;;;;;;;12.07;2.90;;;;;;;10.23;100.00;101298.25;5033236;28;20116;-52
2023/01/05 09:45:00;;;;;;;9.02;2.50;;;;;;;10.30;100.00;101287.84;5031720;28;20564;-51
2023/01/05 09:47:36;;;;;;;13.60;1.95;;;;;;;10.45;100.00;101295.91;5033523;28;20045;-55
2023/01/05 09:50:05;;;;;;;9.25;2.03;;;;;;;10.50;100.00;101295.41;5031946;28;20044;-55
2023/01/05 09:52:30;;;;;;;7.07;1.75;;;;;;;10.54;100.00;101300.19;5032006;28;20406;-52
2023/01/05 09:54:56;;;;;;;9.68;2.13;;;;;;;10.58;100.00;101298.84;5018358;28;20030;-53
2023/01/05 09:57:25;;;;;;;10.45;1.38;;;;;;;10.70;100.00;101288.69;5028851;28;20111;-51
2023/01/05 09:59:54;;;;;;;11.82;2.08;;;;;;;10.74;100.00;101295.31;5032252;28;20034;-56
2023/01/05 10:02:33;;;;;;;13.13;2.95;;;;;;;10.75;100.00;101301.44;5021976;28;20471;-51
2023/01/05 10:05:00;;;;;;;10.68;1.00;;;;;;;10.83;100.00;101299.59;5036566;28;20111;-51
2023/01/05 10:07:32;;;;;;;7.90;1.23;;;;;;;10.96;100.00;101295.56;5029238;28;20037;-55
2023/01/05 10:10:05;;;;;;;9.80;1.27;;;;;;;11.02;100.00;101301.00;5020720;28;20482;-52
2023/01/05 10:15:23;;;;;;;4.93;1.15;;;;;;;11.12;100.00;101293.63;5030605;28;20067;-53
2023/01/05 10:17:48;;;;;;;8.98;2.35;;;;;;;11.26;100.00;101291.25;5035313;28;20033;-50
2023/01/05 10:20:39;;;;;;;7.35;1.77;;;;;;;11.39;100.00;101296.78;5029110;28;20017;-55
2023/01/05 10:23:11;;;;;;;5.57;1.75;;;;;;;11.39;100.00;101286.19;5024371;28;20036;-50
2023/01/05 10:25:51;;;;;;;5.35;0.50;;;;;;;11.50;100.00;101283.09;5026676;28;20033;-52
2023/01/05 10:28:54;;;;;;;2.67;0.30;;;;;;;11.58;100.00;101285.69;5032256;28;20031;-52
2023/01/05 10:31:33;;;;;;;6.60;0.63;;;;;;;11.60;100.00;101284.69;5033995;28;20490;-52
2023/01/05 10:34:18;;;;;;;6.45;0.60;;;;;;;11.63;100.00;101289.66;5035868;28;20180;-53
2023/01/05 10:37:04;;;;;;;2.78;0.77;;;;;;;11.55;100.00;101286.03;5027845;28;20041;-54
2023/01/05 10:40:06;;;;;;;7.68;1.70;;;;;;;11.56;100.00;101281.56;5037729;28;20033;-50
2023/01/05 10:43:02;;;;;;;12.05;0.60;;;;;;;11.65;100.00;101274.38;5026769;28;20052;-51
2023/01/05 10:45:29;;;;;;;7.53;0.60;;;;;;;11.80;100.00;101283.22;5039367;28;20033;-51
2023/01/05 10:47:55;;;;;;;3.42;0.73;;;;;;;11.87;100.00;101275.34;5028761;28;20033;-51
2023/01/05 10:50:26;;;;;;;3.75;0.63;;;;;;;11.91;100.00;101279.31;5035584;28;20027;-48
2023/01/05 10:52:52;;;;;;;1.17;0.23;;;;;;;11.96;100.00;101274.28;5036115;28;20050;-50
2023/01/05 10:55:19;;;;;;;2.00;0.32;;;;;;;11.98;100.00;101274.94;5042896;28;20485;-50
2023/01/05 10:57:45;;;;;;;2.47;0.60;;;;;;;12.08;100.00;101267.53;5034327;28;20037;-51
2023/01/05 11:00:36;;;;;;;6.88;0.98;;;;;;;12.03;100.00;101272.56;5030861;28;20543;-51
2023/01/05 11:03:02;;;;;;;3.03;0.22;;;;;;;12.00;100.00;101263.13;5032100;28;20037;-52
2023/01/05 11:05:42;;;;;;;6.35;0.50;;;;;;;12.02;100.00;101256.78;5030560;28;20038;-56
2023/01/05 11:08:16;;;;;;;1.55;0.88;;;;;;;12.06;100.00;101260.75;5039283;28;20604;-54
2023/01/05 11:11:06;;;;;;;5.55;1.92;;;;;;;12.17;100.00;101254.97;5033810;28;20035;-51
2023/01/05 11:13:34;;;;;;;3.05;0.35;;;;;;;12.19;100.00;101251.13;5037768;28;20034;-51
2023/01/05 11:16:08;;;;;;;0.70;0.20;;;;;;;12.09;100.00;101245.25;5034947;28;20514;-52
2023/01/05 11:18:53;;;;;;;6.22;0.80;;;;;;;12.00;100.00;101241.00;5027272;28;20045;-54
2023/01/05 11:21:23;;;;;;;2.90;0.25;;;;;;;12.02;100.00;101246.97;5028288;28;20116;-51
2023/01/05 11:23:52;;;;;;;2.80;0.23;;;;;;;11.98;100.00;101243.88;5033225;28;20083;-51
2023/01/05 11:26:17;;;;;;;1.50;0.10;;;;;;;12.02;100.00;101243.50;5024972;28;20081;-52
2023/01/05 11:28:59;;;;;;;3.88;0.63;;;;;;;12.09;100.00;101231.13;5034562;28;20029;-57
2023/01/05 11:31:34;;;;;;;3.45;0.57;;;;;;;12.05;100.00;101224.53;5028041;28;20026;-56
2023/01/05 11:34:07;;;;;;;1.63;0.88;;;;;;;12.08;100.00;101218.84;5034545;28;20028;-51
2023/01/05 11:36:32;;;;;;;7.15;1.92;;;;;;;12.09;100.00;101212.53;5031664;28;20030;-49
2023/01/05 11:38:58;;;;;;;3.83;0.30;;;;;;;12.18;100.00;101200.78;5034722;28;20441;-52
2023/01/05 11:41:24;;;;;;;2.92;0.70;;;;;;;12.24;100.00;101202.72;5033927;28;20036;-48
2023/01/05 11:43:53;;;;;;;7.88;0.30;;;;;;;12.25;100.00;101199.03;5037164;28;20075;-48
2023/01/05 11:46:21;;;;;;;1.50;0.32;;;;;;;12.32;100.00;101197.31;5038747;28;20056;-53
2023/01/05 11:48:55;;;;;;;2.65;0.20;;;;;;;12.58;100.00;101202.13;5025812;28;20033;-54
2023/01/05 11:51:35;;;;;;;3.58;0.20;;;;;;;12.54;100.00;101195.50;5027337;28;20140;-52
2023/01/05 11:54:01;;;;;;;0.77;0.03;;;;;;;12.46;100.00;101189.47;5038966;28;20025;-53
2023/01/05 11:56:26;;;;;;;3.13;1.45;;;;;;;12.50;100.00;101188.13;5040676;28;20136;-50